Time;durP1;ratioP1;P1;durP2;ratioP2;P2;SDS_P1;SDS_P2;PMS_P1;PMS_P2;Temp;Humidity;BMP_temperature;BMP_pressure;BME280_temperature;BME280_humidity;BME280_pressure;Samples;Min_cycle;Max_cycle;Signal;HPM_P1;HPM_P2
2024/02/26 00:02:18;;;;;;;7.20;4.28;;;3.00;99.90;;;;;;5110207;27;20023;-62
2024/02/26 00:04:44;;;;;;;7.63;4.03;;;2.90;99.90;;;;;;5110068;27;20438;-62
2024/02/26 00:07:10;;;;;;;10.02;4.68;;;2.90;99.90;;;;;;5108502;28;20041;-62
2024/02/26 00:09:37;;;;;;;5.60;3.60;;;2.80;99.90;;;;;;5110154;28;20027;-62
2024/02/26 00:12:03;;;;;;;7.55;4.65;;;2.80;99.90;;;;;;5110547;28;20015;-62
2024/02/26 00:14:29;;;;;;;11.30;4.47;;;2.80;99.90;;;;;;5109503;28;20008;-62
2024/02/26 00:16:55;;;;;;;9.90;5.20;;;2.80;99.90;;;;;;5109735;28;20016;-62
2024/02/26 00:19:21;;;;;;;5.00;4.05;;;2.80;99.90;;;;;;5110080;28;20035;-62
2024/02/26 00:21:46;;;;;;;7.25;4.65;;;2.80;99.90;;;;;;5108466;28;20039;-62
2024/02/26 00:24:12;;;;;;;6.65;4.95;;;2.80;99.90;;;;;;5109862;28;20035;-62
2024/02/26 00:26:38;;;;;;;6.95;3.90;;;2.80;99.90;;;;;;5109535;28;20034;-62
2024/02/26 00:29:03;;;;;;;8.15;4.45;;;2.70;99.90;;;;;;5108410;28;20114;-62
2024/02/26 00:31:29;;;;;;;7.43;3.88;;;2.80;99.90;;;;;;5108386;28;20024;-62
2024/02/26 00:33:55;;;;;;;9.20;4.35;;;2.80;99.90;;;;;;5110081;28;20077;-62
2024/02/26 00:36:20;;;;;;;7.35;4.22;;;2.70;99.90;;;;;;5109605;28;20255;-62
2024/02/26 00:38:50;;;;;;;7.70;4.32;;;2.90;99.90;;;;;;5110019;28;20028;-62
2024/02/26 00:41:19;;;;;;;5.70;3.75;;;2.90;99.90;;;;;;5108061;28;20417;-62
2024/02/26 00:43:45;;;;;;;6.65;4.05;;;2.90;99.90;;;;;;5109492;28;20496;-62
2024/02/26 00:46:10;;;;;;;7.47;4.10;;;2.90;99.90;;;;;;5109149;28;20163;-62
2024/02/26 00:48:37;;;;;;;6.65;4.18;;;2.90;99.90;;;;;;5109086;28;20573;-62
2024/02/26 00:51:05;;;;;;;6.85;3.85;;;2.90;99.90;;;;;;5109446;28;20027;-62
2024/02/26 00:53:30;;;;;;;6.93;4.05;;;2.80;99.90;;;;;;5109330;28;20028;-62
2024/02/26 00:55:56;;;;;;;8.88;4.00;;;2.80;99.90;;;;;;5109097;28;20069;-62
2024/02/26 00:58:22;;;;;;;8.45;3.72;;;2.80;99.90;;;;;;5109329;28;20456;-62
2024/02/26 01:00:47;;;;;;;6.53;4.65;;;2.80;99.90;;;;;;5108888;28;20031;-63
2024/02/26 01:03:13;;;;;;;5.38;4.30;;;2.80;99.90;;;;;;5108019;28;20178;-62
2024/02/26 01:05:39;;;;;;;6.97;4.25;;;2.90;99.90;;;;;;5108803;28;20027;-62
2024/02/26 01:08:04;;;;;;;6.45;4.47;;;2.80;99.90;;;;;;5108725;28;20023;-62
2024/02/26 01:10:30;;;;;;;7.45;4.32;;;2.80;99.90;;;;;;5108696;28;20027;-62
2024/02/26 01:12:56;;;;;;;6.72;4.60;;;2.70;99.90;;;;;;5107540;28;20023;-62
2024/02/26 01:15:23;;;;;;;6.30;3.80;;;2.70;99.90;;;;;;5108707;28;20015;-62
2024/02/26 01:17:50;;;;;;;8.82;4.00;;;2.70;99.90;;;;;;5108955;28;20027;-62
2024/02/26 01:20:16;;;;;;;5.90;3.78;;;2.70;99.90;;;;;;5107683;28;20031;-63
2024/02/26 01:22:42;;;;;;;6.43;4.05;;;2.60;99.90;;;;;;5106805;28;20024;-62
2024/02/26 01:25:09;;;;;;;8.88;4.18;;;2.70;99.90;;;;;;5107142;28;20020;-62
2024/02/26 01:27:35;;;;;;;9.52;4.55;;;2.60;99.90;;;;;;5108115;28;20027;-62
2024/02/26 01:30:03;;;;;;;6.63;4.38;;;2.60;99.90;;;;;;5107918;28;20080;-62
2024/02/26 01:32:30;;;;;;;5.93;4.13;;;2.60;99.90;;;;;;5107289;28;20421;-62
2024/02/26 01:34:55;;;;;;;8.68;3.83;;;2.60;99.90;;;;;;5108602;28;20043;-62
2024/02/26 01:37:21;;;;;;;6.22;4.05;;;2.50;99.90;;;;;;5108300;28;20644;-62
2024/02/26 01:39:47;;;;;;;7.78;4.13;;;2.50;99.90;;;;;;5108730;28;20102;-62
2024/02/26 01:42:12;;;;;;;6.03;4.28;;;2.40;99.90;;;;;;5108656;28;20030;-62
2024/02/26 01:44:38;;;;;;;8.60;4.18;;;2.40;99.90;;;;;;5107287;28;20019;-61
2024/02/26 01:47:05;;;;;;;5.20;4.00;;;2.40;99.90;;;;;;5108075;28;20480;-61
2024/02/26 01:49:31;;;;;;;5.47;3.95;;;2.40;99.90;;;;;;5108440;28;20091;-61
2024/02/26 01:51:57;;;;;;;7.40;4.18;;;2.30;99.90;;;;;;5108054;28;20016;-61
2024/02/26 01:54:23;;;;;;;6.68;4.07;;;2.30;99.90;;;;;;5106770;28;20043;-61
2024/02/26 01:56:50;;;;;;;6.47;3.80;;;2.30;99.90;;;;;;5106454;28;20334;-63
2024/02/26 01:59:16;;;;;;;6.53;3.90;;;2.20;99.90;;;;;;5108470;28;20031;-61
2024/02/26 02:01:45;;;;;;;4.97;4.03;;;2.20;99.90;;;;;;5108249;28;20034;-61
2024/02/26 02:04:12;;;;;;;6.13;4.10;;;2.20;99.90;;;;;;5108339;28;20472;-61
2024/02/26 02:06:38;;;;;;;6.10;4.25;;;2.20;99.90;;;;;;5108022;28;20084;-61
2024/02/26 02:09:06;;;;;;;6.18;4.10;;;2.20;99.90;;;;;;5107889;28;20107;-61
2024/02/26 02:11:33;;;;;;;6.22;4.32;;;2.20;99.90;;;;;;5108263;28;20015;-60
2024/02/26 02:13:59;;;;;;;6.90;4.30;;;2.20;99.90;;;;;;5099488;28;20026;-61
2024/02/26 02:16:26;;;;;;;5.53;3.70;;;2.20;99.90;;;;;;5107366;28;20015;-61
2024/02/26 02:18:51;;;;;;;7.13;4.53;;;2.20;99.90;;;;;;5107930;28;20016;-61
2024/02/26 02:21:17;;;;;;;5.55;3.70;;;2.10;99.90;;;;;;5107975;28;20019;-61
2024/02/26 02:23:46;;;;;;;7.60;4.72;;;2.10;99.90;;;;;;5108039;28;20019;-61
2024/02/26 02:26:15;;;;;;;7.85;4.20;;;2.00;99.90;;;;;;5107341;28;20091;-62
2024/02/26 02:28:41;;;;;;;7.00;4.32;;;2.10;99.90;;;;;;5108002;28;20252;-61
2024/02/26 02:31:07;;;;;;;8.95;4.60;;;2.00;99.90;;;;;;5108154;28;20027;-61
2024/02/26 02:33:37;;;;;;;9.00;5.15;;;2.00;99.90;;;;;;5106515;28;20024;-60
2024/02/26 02:36:02;;;;;;;7.50;4.38;;;2.00;99.90;;;;;;5106016;28;20117;-60
2024/02/26 02:38:29;;;;;;;7.10;4.45;;;2.00;99.90;;;;;;5110169;28;20020;-60
2024/02/26 02:40:55;;;;;;;5.90;4.45;;;1.90;99.90;;;;;;5112084;28;20019;-61
2024/02/26 02:43:20;;;;;;;6.40;4.32;;;1.90;99.90;;;;;;5111657;27;20016;-61
2024/02/26 02:45:46;;;;;;;5.40;4.30;;;2.00;99.90;;;;;;5111165;28;20032;-61
2024/02/26 02:48:12;;;;;;;9.15;4.35;;;2.00;99.90;;;;;;5111642;28;20035;-61
2024/02/26 02:50:37;;;;;;;6.53;4.28;;;2.00;99.90;;;;;;5111886;28;20160;-61
2024/02/26 02:53:03;;;;;;;7.25;4.72;;;2.00;99.90;;;;;;5111852;28;20076;-61
2024/02/26 02:55:29;;;;;;;6.85;4.38;;;2.00;99.90;;;;;;5111565;28;20023;-60
2024/02/26 02:57:54;;;;;;;6.63;4.38;;;1.90;99.90;;;;;;5111931;28;20545;-61
2024/02/26 03:00:22;;;;;;;6.15;4.15;;;1.90;99.90;;;;;;5111922;28;20030;-60
2024/02/26 03:02:48;;;;;;;5.93;4.28;;;2.00;99.90;;;;;;5110495;28;20061;-60
2024/02/26 03:05:14;;;;;;;5.57;3.97;;;1.90;99.90;;;;;;5110966;28;20450;-61
2024/02/26 03:07:39;;;;;;;5.40;4.53;;;2.00;99.90;;;;;;5111809;27;20019;-61
2024/02/26 03:10:05;;;;;;;6.30;4.18;;;1.90;99.90;;;;;;5110710;28;20020;-61
2024/02/26 03:12:31;;;;;;;7.32;4.88;;;1.90;99.90;;;;;;5109047;28;20375;-61
2024/02/26 03:14:57;;;;;;;6.82;4.10;;;1.90;99.90;;;;;;5109639;28;20038;-61
2024/02/26 03:17:24;;;;;;;7.25;4.32;;;1.80;99.90;;;;;;5109177;28;20424;-61
2024/02/26 03:19:53;;;;;;;6.80;4.68;;;1.80;99.90;;;;;;5110352;28;20024;-61
2024/02/26 03:22:19;;;;;;;13.60;5.72;;;1.70;99.90;;;;;;5109204;28;20051;-61
2024/02/26 03:24:44;;;;;;;6.90;5.03;;;1.70;99.90;;;;;;5110533;28;20086;-61
2024/02/26 03:27:10;;;;;;;8.88;4.63;;;1.70;99.90;;;;;;5109022;28;20038;-61
2024/02/26 03:29:37;;;;;;;7.18;5.13;;;1.70;99.90;;;;;;5110868;28;20346;-61
2024/02/26 03:32:02;;;;;;;10.50;5.45;;;1.60;99.90;;;;;;5111228;28;20098;-61
2024/02/26 03:34:28;;;;;;;7.07;5.55;;;1.60;99.90;;;;;;5110912;28;20477;-61
2024/02/26 03:36:54;;;;;;;10.02;6.22;;;1.70;99.90;;;;;;5110060;28;20035;-61
2024/02/26 03:39:19;;;;;;;8.52;5.63;;;1.70;99.90;;;;;;5110784;28;20023;-61
2024/02/26 03:41:45;;;;;;;9.52;6.82;;;1.80;99.90;;;;;;5110340;28;20081;-61
2024/02/26 03:44:10;;;;;;;8.70;6.30;;;1.80;99.90;;;;;;5110475;28;20045;-61
2024/02/26 03:46:36;;;;;;;8.77;5.75;;;1.80;99.90;;;;;;5109900;28;20107;-61
2024/02/26 03:49:01;;;;;;;8.68;6.35;;;1.90;99.90;;;;;;5109772;28;20145;-61
2024/02/26 03:51:31;;;;;;;9.18;6.53;;;1.90;99.90;;;;;;5109991;28;20012;-61
2024/02/26 03:53:57;;;;;;;10.43;6.10;;;1.90;99.90;;;;;;5110542;27;20088;-61
2024/02/26 03:56:23;;;;;;;10.68;7.18;;;1.90;99.90;;;;;;5108027;28;20023;-61
2024/02/26 03:58:48;;;;;;;7.85;5.97;;;1.90;99.90;;;;;;5110025;28;20012;-61
2024/02/26 04:01:14;;;;;;;11.07;6.15;;;1.90;99.90;;;;;;5108583;28;20114;-61
2024/02/26 04:03:39;;;;;;;11.55;7.05;;;1.90;99.90;;;;;;5109853;28;20095;-61
2024/02/26 04:06:08;;;;;;;9.90;6.30;;;1.90;99.90;;;;;;5108219;28;20020;-61
2024/02/26 04:08:33;;;;;;;9.27;6.38;;;1.90;99.90;;;;;;5109189;28;20539;-61
2024/02/26 04:10:59;;;;;;;9.32;6.30;;;1.90;99.90;;;;;;5110534;27;20110;-61
2024/02/26 04:13:25;;;;;;;7.35;6.10;;;2.00;99.90;;;;;;5109500;28;20019;-61
2024/02/26 04:15:51;;;;;;;9.43;6.43;;;1.90;99.90;;;;;;5110116;28;20030;-61
2024/02/26 04:18:16;;;;;;;8.85;6.43;;;1.90;99.90;;;;;;5110432;28;20012;-61
2024/02/26 04:20:42;;;;;;;8.30;6.35;;;1.80;99.90;;;;;;5110363;28;20152;-61
2024/02/26 04:23:08;;;;;;;9.25;6.60;;;1.80;99.90;;;;;;5110229;28;20027;-61
2024/02/26 04:25:33;;;;;;;9.45;6.53;;;1.80;99.90;;;;;;5109814;28;20062;-61
2024/02/26 04:27:59;;;;;;;10.23;7.50;;;1.90;99.90;;;;;;5108372;28;20232;-61
2024/02/26 04:30:24;;;;;;;8.65;6.80;;;1.80;99.90;;;;;;5110092;28;20024;-61
2024/02/26 04:32:50;;;;;;;16.55;7.78;;;1.80;99.90;;;;;;5109856;28;20028;-61
2024/02/26 04:35:16;;;;;;;9.88;7.28;;;1.80;99.90;;;;;;5109363;28;20042;-61
2024/02/26 04:37:41;;;;;;;11.40;7.00;;;1.80;99.90;;;;;;5109685;28;20333;-61
2024/02/26 04:40:08;;;;;;;11.77;7.05;;;1.80;99.90;;;;;;5109864;28;20104;-60
2024/02/26 04:42:33;;;;;;;11.27;6.82;;;1.80;99.90;;;;;;5109723;28;20075;-60
2024/02/26 04:44:59;;;;;;;9.43;7.55;;;1.80;99.90;;;;;;5109987;28;20024;-60
2024/02/26 04:47:24;;;;;;;13.52;7.68;;;1.80;99.90;;;;;;5109561;28;20115;-61
2024/02/26 04:49:50;;;;;;;10.55;7.57;;;1.80;99.90;;;;;;5107935;28;20099;-60
2024/02/26 04:52:16;;;;;;;10.52;7.10;;;1.80;99.90;;;;;;5109175;28;20058;-60
2024/02/26 04:54:41;;;;;;;11.63;7.35;;;1.80;99.90;;;;;;5109067;28;20493;-60
2024/02/26 04:57:07;;;;;;;9.32;7.05;;;1.70;99.90;;;;;;5108921;28;20054;-60
2024/02/26 04:59:32;;;;;;;9.15;6.68;;;1.80;99.90;;;;;;5109317;28;20039;-60
2024/02/26 05:01:58;;;;;;;10.95;6.90;;;1.90;99.90;;;;;;5108897;28;20054;-60
2024/02/26 05:04:23;;;;;;;12.20;7.82;;;1.90;99.90;;;;;;5109103;28;20401;-61
2024/02/26 05:06:49;;;;;;;9.82;6.45;;;1.90;99.90;;;;;;5108943;28;20028;-61
2024/02/26 05:09:14;;;;;;;10.63;7.00;;;1.80;99.90;;;;;;5109367;28;20434;-61
2024/02/26 05:11:40;;;;;;;9.90;6.35;;;1.80;99.90;;;;;;5109173;28;20030;-60
2024/02/26 05:14:06;;;;;;;10.75;6.97;;;1.90;99.90;;;;;;5109028;28;20059;-61
2024/02/26 05:16:31;;;;;;;9.00;7.35;;;1.90;99.90;;;;;;5108758;28;20037;-60
2024/02/26 05:18:57;;;;;;;10.07;6.45;;;1.90;99.90;;;;;;5109030;28;20237;-61
2024/02/26 05:21:23;;;;;;;8.95;6.50;;;1.90;99.90;;;;;;5109002;28;20016;-60
2024/02/26 05:23:48;;;;;;;9.02;6.45;;;1.90;99.90;;;;;;5108513;28;20028;-60
2024/02/26 05:26:21;;;;;;;10.48;6.97;;;1.90;99.90;;;;;;5108238;28;20068;-61
2024/02/26 05:28:46;;;;;;;10.48;6.68;;;1.90;99.90;;;;;;5108738;28;20028;-60
2024/02/26 05:31:16;;;;;;;9.68;6.45;;;1.90;99.90;;;;;;5106767;28;20495;-61
2024/02/26 05:33:41;;;;;;;9.02;6.75;;;1.90;99.90;;;;;;5108836;28;20015;-61
2024/02/26 05:36:07;;;;;;;13.52;7.63;;;1.90;99.90;;;;;;5106490;28;20024;-61
2024/02/26 05:38:32;;;;;;;11.70;7.18;;;1.90;99.90;;;;;;5108550;28;20035;-60
2024/02/26 05:40:58;;;;;;;11.95;6.53;;;1.90;99.90;;;;;;5106088;28;20028;-60
2024/02/26 05:43:25;;;;;;;13.43;6.45;;;1.90;99.90;;;;;;5108772;28;20032;-61
2024/02/26 05:45:51;;;;;;;9.13;7.10;;;1.90;99.90;;;;;;5106651;28;20084;-61
2024/02/26 05:48:18;;;;;;;11.75;6.90;;;1.90;99.90;;;;;;5108262;28;20072;-61
2024/02/26 05:50:47;;;;;;;12.13;6.65;;;1.90;99.90;;;;;;5108105;28;20487;-61
2024/02/26 05:53:13;;;;;;;11.35;7.07;;;1.90;99.90;;;;;;5106695;28;20045;-61
2024/02/26 05:55:39;;;;;;;9.20;7.05;;;1.90;99.90;;;;;;5107891;28;20114;-61
2024/02/26 05:58:04;;;;;;;11.85;7.15;;;2.00;99.90;;;;;;5108197;28;20019;-61
2024/02/26 06:00:30;;;;;;;7.97;6.07;;;2.00;99.90;;;;;;5108413;28;20500;-60
2024/02/26 06:02:56;;;;;;;10.25;7.28;;;2.00;99.90;;;;;;5108758;28;20039;-60
2024/02/26 06:05:21;;;;;;;10.43;6.90;;;2.00;99.90;;;;;;5108179;28;20448;-60
2024/02/26 06:07:47;;;;;;;11.57;6.95;;;2.00;99.90;;;;;;5108312;28;20027;-60
2024/02/26 06:10:13;;;;;;;10.05;6.82;;;2.10;99.90;;;;;;5106938;28;20038;-59
2024/02/26 06:12:40;;;;;;;8.27;6.18;;;2.10;99.90;;;;;;5107882;28;20509;-59
2024/02/26 06:15:06;;;;;;;9.80;6.85;;;2.10;99.90;;;;;;5107619;28;20027;-59
2024/02/26 06:17:31;;;;;;;10.73;6.80;;;2.10;99.90;;;;;;5107790;28;20035;-59
2024/02/26 06:19:59;;;;;;;9.23;6.45;;;2.20;99.90;;;;;;5107584;28;20016;-59
2024/02/26 06:22:25;;;;;;;7.35;6.22;;;2.20;99.90;;;;;;5105197;28;20015;-59
2024/02/26 06:24:50;;;;;;;10.18;6.72;;;2.20;99.90;;;;;;5107293;28;20076;-59
2024/02/26 06:27:16;;;;;;;8.02;6.22;;;2.20;99.90;;;;;;5105589;28;20050;-59
2024/02/26 06:29:41;;;;;;;10.48;6.55;;;2.20;99.90;;;;;;5106599;28;20102;-59
2024/02/26 06:32:07;;;;;;;9.52;6.95;;;2.30;99.90;;;;;;5107231;28;20093;-59
2024/02/26 06:34:33;;;;;;;9.82;6.15;;;2.30;99.90;;;;;;5106234;28;20024;-59
2024/02/26 06:36:58;;;;;;;10.02;5.95;;;2.30;99.90;;;;;;5105746;28;20525;-59
2024/02/26 06:39:24;;;;;;;8.60;6.07;;;2.30;99.90;;;;;;5106573;28;20034;-59
2024/02/26 06:41:49;;;;;;;7.20;5.55;;;2.30;99.90;;;;;;5106454;28;20023;-60
2024/02/26 06:44:15;;;;;;;11.43;6.68;;;2.30;99.90;;;;;;5107649;28;20047;-61
2024/02/26 06:46:40;;;;;;;12.15;6.18;;;2.30;99.90;;;;;;5106990;28;20050;-61
2024/02/26 06:49:06;;;;;;;8.68;5.78;;;2.40;99.90;;;;;;5107443;28;20278;-61
2024/02/26 06:51:31;;;;;;;8.18;6.53;;;2.40;99.90;;;;;;5105968;28;20032;-62
2024/02/26 06:53:57;;;;;;;10.75;6.55;;;2.40;99.90;;;;;;5107330;28;20058;-61
2024/02/26 06:56:23;;;;;;;6.55;5.00;;;2.40;99.90;;;;;;5107471;28;20185;-62
2024/02/26 06:58:48;;;;;;;8.55;4.75;;;2.50;99.90;;;;;;5107610;28;20611;-61
2024/02/26 07:01:14;;;;;;;8.65;5.82;;;2.50;99.90;;;;;;5107283;28;20027;-61
2024/02/26 07:03:42;;;;;;;8.68;4.47;;;2.50;99.90;;;;;;5107294;28;20110;-61
2024/02/26 07:06:08;;;;;;;7.95;5.72;;;2.60;99.90;;;;;;5106553;28;20516;-62
2024/02/26 07:08:34;;;;;;;10.38;5.53;;;2.60;99.90;;;;;;5106101;28;20020;-62
2024/02/26 07:10:59;;;;;;;6.65;4.90;;;2.60;99.90;;;;;;5106548;28;20028;-62
2024/02/26 07:13:25;;;;;;;19.05;7.03;;;2.60;99.90;;;;;;5107569;28;20425;-63
2024/02/26 07:15:50;;;;;;;8.07;5.75;;;2.70;99.90;;;;;;5106728;28;20035;-62
2024/02/26 07:18:16;;;;;;;9.52;5.38;;;2.70;99.90;;;;;;5106961;28;20028;-62
2024/02/26 07:20:41;;;;;;;7.63;5.45;;;2.80;99.90;;;;;;5107384;28;20023;-63
2024/02/26 07:23:07;;;;;;;8.23;5.65;;;2.80;99.90;;;;;;5106386;28;20489;-63
2024/02/26 07:25:32;;;;;;;12.52;5.82;;;2.90;99.90;;;;;;5107887;28;20027;-63
2024/02/26 07:27:58;;;;;;;9.38;6.68;;;3.00;99.90;;;;;;5109972;28;20039;-63
2024/02/26 07:30:24;;;;;;;7.57;4.40;;;3.10;99.90;;;;;;5110201;28;20503;-63
2024/02/26 07:32:50;;;;;;;9.52;5.45;;;3.10;99.90;;;;;;5110080;28;20023;-63
2024/02/26 07:35:17;;;;;;;9.02;5.68;;;3.20;99.90;;;;;;5111001;28;20096;-63
2024/02/26 07:37:43;;;;;;;8.13;4.82;;;3.20;99.90;;;;;;5109947;28;20023;-63
2024/02/26 07:40:09;;;;;;;7.97;5.25;;;3.30;99.90;;;;;;5109830;28;20024;-63
2024/02/26 07:42:34;;;;;;;6.88;4.47;;;3.30;99.90;;;;;;5110607;28;20038;-63
2024/02/26 07:45:00;;;;;;;7.07;5.40;;;3.40;99.90;;;;;;5110223;28;20067;-63
2024/02/26 07:47:25;;;;;;;6.80;4.55;;;3.50;99.90;;;;;;5110499;28;20118;-63
2024/02/26 07:49:51;;;;;;;7.25;5.13;;;3.50;99.90;;;;;;5109958;28;20036;-64
2024/02/26 07:52:16;;;;;;;5.45;4.40;;;3.60;99.90;;;;;;5110255;28;20353;-64
2024/02/26 07:54:42;;;;;;;5.60;3.85;;;3.60;99.90;;;;;;5111446;28;20060;-64
2024/02/26 07:57:08;;;;;;;5.57;4.20;;;3.60;99.90;;;;;;5110436;28;20123;-64
2024/02/26 07:59:33;;;;;;;8.43;4.28;;;3.70;99.90;;;;;;5110626;28;20546;-64
2024/02/26 08:01:59;;;;;;;7.10;4.72;;;3.70;99.90;;;;;;5110339;28;20039;-65
2024/02/26 08:04:26;;;;;;;6.30;4.30;;;3.80;99.90;;;;;;5110755;28;20076;-64
2024/02/26 08:06:52;;;;;;;7.15;5.03;;;3.90;99.90;;;;;;5110259;28;20525;-63
2024/02/26 08:09:17;;;;;;;8.35;4.43;;;3.90;99.90;;;;;;5110568;28;20027;-64
2024/02/26 08:11:43;;;;;;;8.52;5.22;;;4.00;99.90;;;;;;5110983;28;20023;-64
2024/02/26 08:14:08;;;;;;;5.88;4.72;;;4.10;99.90;;;;;;5110118;28;20361;-65
2024/02/26 08:16:35;;;;;;;7.30;4.65;;;4.20;99.90;;;;;;5108531;28;20491;-64
2024/02/26 08:19:00;;;;;;;5.80;4.53;;;4.20;99.90;;;;;;5110231;28;20028;-64
2024/02/26 08:21:26;;;;;;;8.10;5.65;;;4.30;99.90;;;;;;5110194;28;20035;-64
2024/02/26 08:23:51;;;;;;;7.57;4.68;;;4.30;99.90;;;;;;5110080;28;20024;-64
2024/02/26 08:26:17;;;;;;;9.23;5.32;;;4.30;99.90;;;;;;5109599;28;20016;-64
2024/02/26 08:28:42;;;;;;;8.85;4.80;;;4.30;99.90;;;;;;5109918;28;20384;-64
2024/02/26 08:31:08;;;;;;;7.82;4.35;;;4.40;99.90;;;;;;5109824;28;20531;-64
2024/02/26 08:33:35;;;;;;;6.97;4.60;;;4.40;99.90;;;;;;5109920;28;20038;-64
2024/02/26 08:36:05;;;;;;;8.57;4.20;;;4.40;99.90;;;;;;5107879;28;20016;-64
2024/02/26 08:38:30;;;;;;;7.60;4.50;;;4.50;99.90;;;;;;5102055;28;20041;-64
2024/02/26 08:40:56;;;;;;;5.85;3.90;;;4.50;99.90;;;;;;5110080;27;20044;-64
2024/02/26 08:43:21;;;;;;;6.10;4.18;;;4.60;99.90;;;;;;5109625;28;20032;-64
2024/02/26 08:45:47;;;;;;;5.90;4.38;;;4.60;99.90;;;;;;5109303;28;20480;-64
2024/02/26 08:48:12;;;;;;;6.32;4.22;;;4.70;99.90;;;;;;5109316;28;20039;-64
2024/02/26 08:50:38;;;;;;;7.25;4.35;;;4.70;99.90;;;;;;5109618;28;20028;-64
2024/02/26 08:53:04;;;;;;;6.10;4.03;;;4.70;99.90;;;;;;5109630;28;20027;-64
2024/02/26 08:55:29;;;;;;;7.07;4.55;;;4.80;99.90;;;;;;5109401;28;20031;-64
2024/02/26 08:57:55;;;;;;;8.55;4.60;;;4.90;99.90;;;;;;5107806;28;20247;-64
2024/02/26 09:00:21;;;;;;;7.03;4.28;;;4.90;99.90;;;;;;5108121;28;20029;-64
2024/02/26 09:02:48;;;;;;;9.10;5.22;;;4.90;99.90;;;;;;5109840;28;20032;-64
2024/02/26 09:05:14;;;;;;;6.78;4.63;;;5.00;99.90;;;;;;5108007;28;20028;-64
2024/02/26 09:07:39;;;;;;;9.63;4.90;;;5.00;99.90;;;;;;5108412;28;20030;-63
2024/02/26 09:10:08;;;;;;;6.88;4.90;;;5.10;99.90;;;;;;5109330;28;20024;-63
2024/02/26 09:12:33;;;;;;;9.13;5.00;;;5.20;99.90;;;;;;5109418;28;20152;-63
2024/02/26 09:14:59;;;;;;;6.00;4.22;;;5.20;99.90;;;;;;5109362;28;20401;-65
2024/02/26 09:17:24;;;;;;;6.82;4.40;;;5.30;99.90;;;;;;5108339;28;20419;-63
2024/02/26 09:19:50;;;;;;;6.93;4.78;;;5.30;99.90;;;;;;5109134;28;20031;-63
2024/02/26 09:22:15;;;;;;;8.45;5.22;;;5.40;99.90;;;;;;5108649;28;20475;-63
2024/02/26 09:24:41;;;;;;;7.40;5.30;;;5.40;99.90;;;;;;5108815;28;20031;-63
2024/02/26 09:27:07;;;;;;;8.48;4.82;;;5.50;99.90;;;;;;5108967;28;20102;-63
2024/02/26 09:29:32;;;;;;;9.90;4.53;;;5.50;99.90;;;;;;5107889;28;20028;-63
2024/02/26 09:31:58;;;;;;;11.75;5.25;;;5.50;99.90;;;;;;5107693;28;20053;-63
2024/02/26 09:34:24;;;;;;;10.15;5.40;;;5.50;99.90;;;;;;5108800;28;20019;-63
2024/02/26 09:36:49;;;;;;;8.32;4.90;;;5.60;99.90;;;;;;5108493;28;20030;-63
2024/02/26 09:39:20;;;;;;;6.85;4.75;;;5.60;99.90;;;;;;5107556;28;20035;-63
2024/02/26 09:41:45;;;;;;;;;;;5.70;99.90;;;;;;5107816;28;20207;-63
2024/02/26 09:44:13;;;;;;;5.57;4.00;;;5.70;99.90;;;;;;5107987;28;20222;-63
2024/02/26 09:46:38;;;;;;;5.32;4.28;;;5.70;99.90;;;;;;5105761;28;20517;-63
2024/02/26 09:49:05;;;;;;;8.07;4.28;;;5.70;99.90;;;;;;5106318;28;20118;-63
2024/02/26 09:51:32;;;;;;;5.57;3.85;;;5.80;99.90;;;;;;5108150;28;20103;-63
2024/02/26 09:54:00;;;;;;;11.57;4.88;;;5.80;99.90;;;;;;5106871;28;20528;-63
2024/02/26 09:56:26;;;;;;;8.52;4.30;;;5.90;99.90;;;;;;5107428;28;20027;-63
2024/02/26 09:58:55;;;;;;;8.02;4.55;;;5.90;99.90;;;;;;5108319;28;20024;-63
2024/02/26 10:01:21;;;;;;;7.43;4.70;;;6.00;99.90;;;;;;5108120;28;20020;-63
2024/02/26 10:03:55;;;;;;;7.82;5.07;;;6.00;99.90;;;;;;5107082;28;20369;-64
2024/02/26 10:06:21;;;;;;;8.95;4.68;;;6.10;99.90;;;;;;5108124;28;20061;-64
2024/02/26 10:08:47;;;;;;;8.35;4.63;;;6.10;99.90;;;;;;5108242;28;20062;-65
2024/02/26 10:11:14;;;;;;;7.82;4.93;;;6.20;99.90;;;;;;5108138;28;20024;-64
2024/02/26 10:13:41;;;;;;;5.25;4.15;;;6.30;99.90;;;;;;5108407;28;20103;-65
2024/02/26 10:16:07;;;;;;;8.40;4.57;;;6.30;99.90;;;;;;5107582;28;20023;-64
2024/02/26 10:18:46;;;;;;;5.72;3.97;;;6.40;99.90;;;;;;5108256;28;20066;-64
2024/02/26 10:21:12;;;;;;;8.77;4.28;;;6.40;99.90;;;;;;5104439;28;20051;-65
2024/02/26 10:23:37;;;;;;;7.43;4.80;;;6.50;99.90;;;;;;5100215;28;20059;-64
2024/02/26 10:26:03;;;;;;;9.57;5.22;;;6.50;99.90;;;;;;5107286;28;20035;-65
2024/02/26 10:28:30;;;;;;;6.20;4.35;;;6.50;99.90;;;;;;5107615;28;20055;-65
2024/02/26 10:30:55;;;;;;;8.63;4.65;;;6.50;99.90;;;;;;5107991;28;20061;-65
2024/02/26 10:33:22;;;;;;;7.97;5.13;;;6.60;99.90;;;;;;5106549;28;20016;-65
2024/02/26 10:35:48;;;;;;;7.75;5.00;;;6.60;99.90;;;;;;5107305;28;20019;-64
2024/02/26 10:38:16;;;;;;;8.82;5.05;;;6.70;99.90;;;;;;5108194;28;20027;-65
2024/02/26 10:40:42;;;;;;;6.22;4.43;;;6.70;99.90;;;;;;5107806;28;20019;-65
2024/02/26 10:43:07;;;;;;;12.43;5.18;;;6.70;99.90;;;;;;5107077;28;20031;-64
2024/02/26 10:45:33;;;;;;;9.80;5.75;;;6.80;99.90;;;;;;5106672;28;20226;-64
2024/02/26 10:48:00;;;;;;;5.80;4.68;;;6.80;99.90;;;;;;5107696;28;20131;-65
2024/02/26 10:50:26;;;;;;;5.78;4.75;;;6.80;99.90;;;;;;5106370;28;20019;-65
2024/02/26 10:52:52;;;;;;;6.10;4.65;;;6.90;99.90;;;;;;5107780;28;20095;-64
2024/02/26 10:55:20;;;;;;;8.27;4.60;;;6.90;99.90;;;;;;5105848;28;20012;-65
2024/02/26 10:57:47;;;;;;;7.85;4.88;;;6.90;99.90;;;;;;5107707;28;20019;-65
2024/02/26 11:00:16;;;;;;;7.93;5.32;;;7.00;99.90;;;;;;5109609;28;20023;-65
2024/02/26 11:02:44;;;;;;;7.53;5.13;;;7.00;99.90;;;;;;5108012;28;20016;-65
2024/02/26 11:05:12;;;;;;;6.10;4.40;;;7.10;99.90;;;;;;5111013;28;20067;-65
2024/02/26 11:07:38;;;;;;;9.18;5.80;;;7.20;99.90;;;;;;5111398;28;20331;-65
2024/02/26 11:10:05;;;;;;;8.20;5.55;;;7.20;99.90;;;;;;5109397;28;20171;-65
2024/02/26 11:12:33;;;;;;;8.07;4.97;;;7.20;99.90;;;;;;5111830;28;20026;-64
2024/02/26 11:15:01;;;;;;;7.50;5.95;;;7.20;99.90;;;;;;5111508;28;20012;-65
2024/02/26 11:17:31;;;;;;;9.70;6.22;;;7.20;99.90;;;;;;5111151;28;20016;-64
2024/02/26 11:20:00;;;;;;;8.70;5.25;;;7.30;99.90;;;;;;5111739;28;20016;-65
2024/02/26 11:22:28;;;;;;;8.50;5.57;;;7.30;99.90;;;;;;5111467;28;20214;-65
2024/02/26 11:24:57;;;;;;;9.13;5.57;;;7.30;99.90;;;;;;5111814;28;20020;-65
2024/02/26 11:27:29;;;;;;;8.13;6.22;;;7.40;99.90;;;;;;5111218;27;20026;-65
2024/02/26 11:29:57;;;;;;;8.50;4.78;;;7.30;99.90;;;;;;5110291;28;20019;-65
2024/02/26 11:32:23;;;;;;;7.75;4.82;;;7.40;99.90;;;;;;5111437;28;20007;-64
2024/02/26 11:34:49;;;;;;;8.77;5.35;;;7.40;99.90;;;;;;5111334;28;20364;-64
2024/02/26 11:37:17;;;;;;;13.18;7.78;;;7.50;99.90;;;;;;5110949;28;20065;-65
2024/02/26 11:39:44;;;;;;;9.48;7.18;;;7.40;99.90;;;;;;5103115;28;20028;-64
2024/02/26 11:42:13;;;;;;;9.50;6.32;;;7.50;99.90;;;;;;5109344;28;20446;-65
2024/02/26 11:44:38;;;;;;;12.52;6.40;;;7.50;99.90;;;;;;5108851;28;20016;-65
2024/02/26 11:47:21;;;;;;;11.07;7.20;;;7.60;99.90;;;;;;5109974;28;20152;-65
2024/02/26 11:49:47;;;;;;;14.25;7.65;;;7.60;99.90;;;;;;5102181;28;20388;-65
2024/02/26 11:52:14;;;;;;;11.23;6.15;;;7.70;99.90;;;;;;5111006;28;20015;-64
2024/02/26 11:54:46;;;;;;;10.50;6.45;;;7.80;99.90;;;;;;5110665;28;20299;-64
2024/02/26 11:57:28;;;;;;;12.48;6.32;;;7.80;99.90;;;;;;5109221;28;20506;-64
2024/02/26 12:00:11;;;;;;;7.20;5.25;;;7.90;99.90;;;;;;5111030;28;20039;-65
2024/02/26 12:02:37;;;;;;;11.43;5.72;;;8.00;99.90;;;;;;5109333;28;20338;-65
2024/02/26 12:05:05;;;;;;;7.57;5.97;;;8.00;99.90;;;;;;5110469;28;20015;-65
2024/02/26 12:07:30;;;;;;;11.10;6.47;;;8.10;99.90;;;;;;5109373;28;20068;-65
2024/02/26 12:10:25;;;;;;;25.42;15.18;;;8.10;99.90;;;;;;5109963;28;20489;-64
2024/02/26 12:13:02;;;;;;;9.23;6.63;;;8.20;99.90;;;;;;5110658;28;20015;-64
2024/02/26 12:15:39;;;;;;;11.50;6.38;;;8.20;99.90;;;;;;5108628;28;20024;-64
2024/02/26 12:18:07;;;;;;;8.23;6.03;;;8.30;99.90;;;;;;5110636;28;20437;-65
2024/02/26 12:20:33;;;;;;;8.52;6.45;;;8.30;99.90;;;;;;5110487;28;20027;-65
2024/02/26 12:22:59;;;;;;;8.48;6.68;;;8.30;99.90;;;;;;5109178;28;20015;-65
2024/02/26 12:25:26;;;;;;;10.68;7.25;;;8.30;99.90;;;;;;5109872;28;20110;-64
2024/02/26 12:27:55;;;;;;;10.73;6.85;;;8.30;99.90;;;;;;5110731;28;20559;-65
2024/02/26 12:30:22;;;;;;;9.30;6.70;;;8.30;99.90;;;;;;5110326;28;20589;-65
2024/02/26 12:32:49;;;;;;;9.48;6.50;;;8.40;99.90;;;;;;5110281;28;20489;-64
2024/02/26 12:35:16;;;;;;;10.05;7.15;;;8.40;99.90;;;;;;5109809;28;20019;-64
2024/02/26 12:37:42;;;;;;;9.05;6.20;;;8.40;99.90;;;;;;5108864;28;20072;-65
2024/02/26 12:40:09;;;;;;;13.32;7.60;;;8.40;99.90;;;;;;5108487;28;20445;-64
2024/02/26 12:42:41;;;;;;;7.70;6.53;;;8.40;99.90;;;;;;5109841;28;20067;-64
2024/02/26 12:45:09;;;;;;;8.15;6.28;;;8.40;99.90;;;;;;5109712;28;20077;-64
2024/02/26 12:47:39;;;;;;;8.18;6.55;;;8.40;99.90;;;;;;5109633;28;20039;-65
2024/02/26 12:50:05;;;;;;;9.73;6.68;;;8.40;99.90;;;;;;5108220;28;20481;-64
2024/02/26 12:52:38;;;;;;;9.48;7.13;;;8.40;99.90;;;;;;5107936;28;20031;-64